createdAt,value
2023-02-11T07:17:40.651Z,93.79
2023-02-11T07:20:44.872Z,94.41
2023-02-11T07:24:20.400Z,97.22
2023-02-11T07:27:24.248Z,100.00
2023-02-11T07:30:54.413Z,100.00
2023-02-11T07:34:24.842Z,100.00
2023-02-11T07:37:28.283Z,100.00
2023-02-11T07:40:32.182Z,100.00
2023-02-11T07:43:36.020Z,100.00
2023-02-11T07:46:43.114Z,100.00
2023-02-11T07:50:06.981Z,100.00
2023-02-11T07:53:27.262Z,100.00
2023-02-11T07:56:35.239Z,100.00
2023-02-11T07:59:39.262Z,100.00
2023-02-11T08:03:06.685Z,100.00
2023-02-11T08:06:14.169Z,100.00
2023-02-11T08:09:19.166Z,100.00
2023-02-11T09:01:55.264Z,95.04
2023-02-11T09:24:12.634Z,91.39
2023-02-11T09:27:15.573Z,92.62
2023-02-11T09:30:18.951Z,90.39
2023-02-11T09:33:21.816Z,88.04
2023-02-11T09:36:46.015Z,88.39
2023-02-11T09:39:49.952Z,88.76
2023-02-11T09:43:22.259Z,87.67
2023-02-11T09:46:50.202Z,88.85
2023-02-11T09:50:00.744Z,88.10
2023-02-11T09:53:28.762Z,84.43
2023-02-11T09:56:55.618Z,84.17
2023-02-11T09:59:58.667Z,83.75
2023-02-11T10:03:39.937Z,82.92
2023-02-11T10:07:21.291Z,83.44
2023-02-11T10:10:44.736Z,81.71
2023-02-11T10:14:02.012Z,80.68
2023-02-11T10:25:00.296Z,78.19
2023-02-11T10:28:15.932Z,80.09
2023-02-11T10:31:24.850Z,78.46
2023-02-11T18:14:48.787Z,75.41
2023-02-11T18:17:52.511Z,75.49
2023-02-11T18:20:57.502Z,75.48
2023-02-11T18:24:06.429Z,76.14
2023-02-11T18:27:10.462Z,76.04
2023-02-11T18:30:16.931Z,76.00
2023-02-11T18:33:19.988Z,76.08
2023-02-11T18:36:24.410Z,76.15
2023-02-11T18:39:28.319Z,76.26
2023-02-11T18:42:34.303Z,76.67
2023-02-11T18:45:37.450Z,77.41
2023-02-11T18:49:00.901Z,78.50
2023-02-11T18:52:04.632Z,78.83
2023-02-11T18:55:08.753Z,79.49
2023-02-11T18:58:13.386Z,79.08
2023-02-11T19:01:21.065Z,78.91
2023-02-11T19:04:24.756Z,78.71
2023-02-11T19:07:28.612Z,79.07
2023-02-11T19:10:31.945Z,78.73
2023-02-11T19:13:35.161Z,78.38
2023-02-11T19:16:41.578Z,77.93
2023-02-11T19:19:45.147Z,78.23
2023-02-11T19:22:48.394Z,77.89
2023-02-11T19:25:52.071Z,77.78
2023-02-11T19:28:55.980Z,77.74
2023-02-11T19:31:59.703Z,75.82
2023-02-11T19:35:03.971Z,74.17
2023-02-11T19:38:07.142Z,73.94
2023-02-11T19:41:19.657Z,72.10
2023-02-11T19:44:31.224Z,70.21
2023-02-11T19:47:35.665Z,67.77
2023-02-11T19:50:39.635Z,67.93
2023-02-11T19:53:44.223Z,67.55
2023-02-11T19:56:48.868Z,68.35
2023-02-11T19:59:55.050Z,68.24
2023-02-11T20:02:58.734Z,68.93
2023-02-11T20:06:07.455Z,71.01
2023-02-11T20:09:13.841Z,72.42
2023-02-11T20:12:37.506Z,73.05
2023-02-11T20:56:25.793Z,77.06
2023-02-11T20:59:29.687Z,79.26
2023-02-11T21:02:33.075Z,78.97
2023-02-11T21:05:36.683Z,79.99
2023-02-11T21:08:40.479Z,80.11
2023-02-11T21:11:44.302Z,80.31
2023-02-11T21:14:47.744Z,80.01
2023-02-11T21:17:52.339Z,82.28
2023-02-11T21:20:55.814Z,82.67
2023-02-11T21:24:18.856Z,83.08
2023-02-11T21:27:23.371Z,83.93
2023-02-11T21:30:26.973Z,84.16
2023-02-11T21:33:51.030Z,85.61
2023-02-11T21:36:54.444Z,87.11
2023-02-11T21:39:58.527Z,87.11
2023-02-11T21:43:02.014Z,86.55
2023-02-11T21:46:12.283Z,87.05
2023-02-11T21:49:15.799Z,87.90
2023-02-11T21:52:38.779Z,88.55
2023-02-11T21:55:42.289Z,88.79
2023-02-11T21:58:46.513Z,88.89
2023-02-11T22:01:50.375Z,88.93
2023-02-11T22:04:54.010Z,89.84
2023-02-11T22:07:57.167Z,91.03
2023-02-11T22:11:06.693Z,90.57
2023-02-11T22:14:11.033Z,90.45
2023-02-11T22:17:14.546Z,89.71
2023-02-11T22:20:17.723Z,91.85
2023-02-11T22:23:21.041Z,92.77
2023-02-11T22:26:25.535Z,93.51
2023-02-11T22:29:28.904Z,94.29
2023-02-11T22:32:32.046Z,97.00
2023-02-11T22:35:35.286Z,97.88
2023-02-11T22:38:38.073Z,99.36
2023-02-11T22:41:43.343Z,99.47
2023-02-11T22:44:46.389Z,100.00
2023-02-11T22:47:49.416Z,100.00
2023-02-11T22:50:52.176Z,100.00
2023-02-11T22:54:01.641Z,100.00
2023-02-11T22:57:04.704Z,100.00
2023-02-11T23:00:10.573Z,100.00
2023-02-11T23:03:13.588Z,100.00
2023-02-11T23:06:17.422Z,100.00
2023-02-11T23:09:20.617Z,100.00
2023-02-11T23:12:23.725Z,100.00
2023-02-11T23:15:26.516Z,100.00
2023-02-11T23:18:29.764Z,100.00
2023-02-11T23:21:34.251Z,100.00
2023-02-11T23:24:37.413Z,100.00
2023-02-11T23:27:40.222Z,100.00
2023-02-11T23:30:43.289Z,100.00
2023-02-11T23:33:47.434Z,100.00
2023-02-11T23:36:50.766Z,100.00
2023-02-11T23:39:53.525Z,100.00
2023-02-11T23:42:56.698Z,100.00
2023-02-11T23:46:00.053Z,100.00
2023-02-11T23:49:04.446Z,100.00
2023-02-11T23:52:07.442Z,100.00
2023-02-11T23:55:10.860Z,100.00
2023-02-11T23:58:14.963Z,100.00
